Time;durP1;ratioP1;P1;durP2;ratioP2;P2;SDS_P1;SDS_P2;PMS_P1;PMS_P2;Temp;Humidity;BMP_temperature;BMP_pressure;BME280_temperature;BME280_humidity;BME280_pressure;Samples;Min_cycle;Max_cycle;Signal;HPM_P1;HPM_P2
2023/10/27 00:01:32;;;;;;;36.55;20.98;;;;;;;9.68;100.00;99127.88;5020461;28;20042;-71
2023/10/27 00:03:59;;;;;;;31.60;21.60;;;;;;;9.70;100.00;99123.41;5007491;28;20596;-72
2023/10/27 00:06:27;;;;;;;34.58;21.42;;;;;;;9.71;100.00;99122.47;5025873;28;20108;-71
2023/10/27 00:08:54;;;;;;;35.60;21.08;;;;;;;9.70;100.00;99120.75;5033695;28;21475;-72
2023/10/27 00:11:21;;;;;;;35.30;21.80;;;;;;;9.70;100.00;99120.75;5022398;28;20057;-71
2023/10/27 00:13:48;;;;;;;44.80;23.73;;;;;;;9.70;100.00;99128.66;5013026;28;20041;-72
2023/10/27 00:16:15;;;;;;;34.85;21.65;;;;;;;9.71;100.00;99127.72;5009722;28;20049;-71
2023/10/27 00:18:43;;;;;;;39.65;23.00;;;;;;;9.72;100.00;99121.50;5013043;28;20049;-71
2023/10/27 00:21:10;;;;;;;39.10;23.42;;;;;;;9.73;100.00;99120.56;5020964;28;20128;-72
2023/10/27 00:23:37;;;;;;;36.10;22.63;;;;;;;9.74;100.00;99119.66;5015762;28;20472;-71
2023/10/27 00:26:05;;;;;;;39.47;22.48;;;;;;;9.78;100.00;99124.66;5020793;28;20030;-71
2023/10/27 00:28:32;;;;;;;38.33;22.65;;;;;;;9.78;100.00;99108.03;5012686;28;20057;-71
2023/10/27 00:31:00;;;;;;;39.17;22.67;;;;;;;9.81;100.00;99113.16;5047792;28;20042;-71
2023/10/27 00:33:28;;;;;;;37.03;22.42;;;;;;;9.85;100.00;99106.75;5024304;28;20069;-72
2023/10/27 00:35:55;;;;;;;38.70;23.58;;;;;;;9.87;100.00;99106.69;5010867;28;20049;-72
2023/10/27 00:38:23;;;;;;;38.40;22.58;;;;;;;9.87;100.00;99104.06;5026971;28;20045;-72
2023/10/27 00:40:50;;;;;;;49.25;28.15;;;;;;;9.88;100.00;99096.06;5028238;28;20498;-71
2023/10/27 00:43:17;;;;;;;50.63;30.60;;;;;;;9.91;100.00;99093.28;5025767;28;20124;-71
2023/10/27 00:45:53;;;;;;;52.38;30.55;;;;;;;9.92;100.00;99094.94;5025744;28;20197;-70
2023/10/27 00:48:21;;;;;;;61.83;34.85;;;;;;;9.90;100.00;99083.69;5028037;28;20056;-70
2023/10/27 00:50:49;;;;;;;50.15;30.30;;;;;;;9.92;100.00;99087.06;5003813;28;20042;-71
2023/10/27 00:53:23;;;;;;;50.08;25.13;;;;;;;9.92;100.00;99086.22;5018799;28;20506;-71
2023/10/27 00:55:50;;;;;;;41.15;24.17;;;;;;;9.94;100.00;99090.44;5019840;28;20037;-71
2023/10/27 00:58:20;;;;;;;40.75;23.38;;;;;;;9.94;100.00;99090.44;5007533;28;20124;-71
2023/10/27 01:00:47;;;;;;;42.78;24.10;;;;;;;9.95;100.00;99094.78;5012100;28;20045;-71
2023/10/27 01:03:15;;;;;;;42.17;23.33;;;;;;;9.97;100.00;99091.22;5010366;28;20152;-71
2023/10/27 01:05:42;;;;;;;42.75;24.00;;;;;;;9.99;100.00;99086.72;5020942;28;20144;-71
2023/10/27 01:08:09;;;;;;;44.42;24.52;;;;;;;9.99;100.00;99082.28;5018067;28;20124;-71
2023/10/27 01:10:37;;;;;;;45.80;25.50;;;;;;;10.01;100.00;99085.69;5019545;28;20406;-71
2023/10/27 01:13:04;;;;;;;48.45;27.23;;;;;;;10.01;100.00;99084.88;5024511;28;20168;-71
2023/10/27 01:15:31;;;;;;;54.55;31.92;;;;;;;10.01;100.00;99079.59;5024880;28;20433;-72
2023/10/27 01:17:58;;;;;;;55.90;30.60;;;;;;;10.01;100.00;99087.50;5012280;28;20069;-71
2023/10/27 01:20:25;;;;;;;49.30;27.10;;;;;;;10.01;100.00;99082.22;5026301;28;20100;-72
2023/10/27 01:22:53;;;;;;;51.40;26.70;;;;;;;10.03;100.00;99077.72;5014237;28;20061;-72
2023/10/27 01:25:20;;;;;;;46.85;26.48;;;;;;;10.01;100.00;99072.53;5013989;28;20045;-72
2023/10/27 01:27:47;;;;;;;47.40;26.83;;;;;;;10.03;100.00;99065.41;5043556;28;20045;-72
2023/10/27 01:30:14;;;;;;;44.78;25.70;;;;;;;10.05;100.00;99070.56;5021895;28;20509;-72
2023/10/27 01:32:43;;;;;;;43.63;24.90;;;;;;;10.05;100.00;99066.19;5016914;28;20077;-72
2023/10/27 01:35:11;;;;;;;46.50;25.20;;;;;;;10.06;100.00;99062.63;5021387;28;20049;-72
2023/10/27 01:37:38;;;;;;;45.40;25.25;;;;;;;10.06;100.00;99067.00;5026884;28;20529;-72
2023/10/27 01:40:06;;;;;;;49.85;26.52;;;;;;;10.05;100.00;99060.03;5022572;28;20541;-72
2023/10/27 01:42:34;;;;;;;47.20;24.42;;;;;;;10.05;100.00;99066.19;5019211;28;20049;-72
2023/10/27 01:45:04;;;;;;;51.75;25.83;;;;;;;10.07;100.00;99064.28;5025569;28;20041;-72
2023/10/27 01:47:33;;;;;;;47.83;23.30;;;;;;;10.10;100.00;99064.13;5042185;28;20046;-72
2023/10/27 01:50:00;;;;;;;50.42;24.55;;;;;;;10.11;100.00;99064.97;5041923;28;20061;-72
2023/10/27 01:52:27;;;;;;;50.85;23.92;;;;;;;10.13;100.00;99067.53;5026972;28;20054;-72
2023/10/27 01:54:54;;;;;;;49.92;23.70;;;;;;;10.14;100.00;99069.22;5026000;28;20033;-72
2023/10/27 01:57:25;;;;;;;49.90;24.40;;;;;;;10.17;100.00;99063.78;5042739;28;20662;-73
2023/10/27 01:59:52;;;;;;;50.30;25.70;;;;;;;10.18;100.00;99065.47;5029914;28;20049;-73
2023/10/27 02:02:20;;;;;;;50.55;24.52;;;;;;;10.18;100.00;99062.81;5013082;28;20068;-74
2023/10/27 02:04:48;;;;;;;62.92;26.10;;;;;;;10.18;100.00;99063.69;5027885;28;20627;-73
2023/10/27 02:07:15;;;;;;;50.30;23.60;;;;;;;10.18;100.00;99061.06;5037097;28;20076;-72
2023/10/27 02:09:43;;;;;;;54.78;24.13;;;;;;;10.20;100.00;99051.28;5026015;28;20132;-72
2023/10/27 02:12:11;;;;;;;52.22;23.17;;;;;;;10.19;100.00;99051.34;5027269;28;20037;-72
2023/10/27 02:14:38;;;;;;;42.22;20.02;;;;;;;10.20;100.00;99053.06;5033698;28;20700;-72
2023/10/27 02:17:06;;;;;;;48.30;22.23;;;;;;;10.20;100.00;99053.91;5024596;28;20037;-72
2023/10/27 02:19:33;;;;;;;45.47;21.80;;;;;;;10.21;100.00;99046.84;5023713;28;20052;-71
2023/10/27 02:22:00;;;;;;;44.00;21.50;;;;;;;10.21;100.00;99053.00;5021300;28;20115;-71
2023/10/27 02:24:28;;;;;;;48.53;21.90;;;;;;;10.22;100.00;99051.19;5001637;28;20099;-73
2023/10/27 02:26:55;;;;;;;47.17;21.45;;;;;;;10.22;100.00;99054.69;5010288;28;20131;-73
2023/10/27 02:29:22;;;;;;;45.40;21.08;;;;;;;10.21;100.00;99045.09;5036707;28;20623;-73
2023/10/27 02:31:49;;;;;;;40.85;20.05;;;;;;;10.21;100.00;99039.81;5019859;28;20605;-72
2023/10/27 02:34:16;;;;;;;36.40;18.90;;;;;;;10.22;100.00;99038.03;5013355;28;20553;-72
2023/10/27 02:36:43;;;;;;;35.03;18.88;;;;;;;10.21;100.00;99037.19;5018229;28;20379;-72
2023/10/27 02:39:11;;;;;;;50.80;21.25;;;;;;;10.21;100.00;99034.56;5010276;28;20034;-72
2023/10/27 02:41:38;;;;;;;43.00;19.00;;;;;;;10.20;100.00;99035.50;5011592;28;20105;-71
2023/10/27 02:44:05;;;;;;;38.75;18.90;;;;;;;10.19;100.00;99038.19;5017446;28;20060;-72
2023/10/27 02:46:33;;;;;;;40.15;20.42;;;;;;;10.23;100.00;99029.19;5020201;28;20158;-72
2023/10/27 02:49:02;;;;;;;36.90;18.92;;;;;;;10.21;100.00;99025.78;5013222;28;20042;-73
2023/10/27 02:51:30;;;;;;;35.42;18.15;;;;;;;10.22;100.00;99027.50;5041253;28;20058;-74
2023/10/27 02:53:58;;;;;;;39.83;17.92;;;;;;;10.21;100.00;99026.66;5015971;28;20128;-70
2023/10/27 02:56:25;;;;;;;39.10;19.67;;;;;;;10.21;100.00;99025.78;5001103;28;20046;-71
2023/10/27 02:58:52;;;;;;;42.67;19.92;;;;;;;10.20;100.00;99021.47;5019175;28;20045;-71
2023/10/27 03:01:20;;;;;;;41.05;18.35;;;;;;;10.20;100.00;99017.06;5024492;28;20049;-71
2023/10/27 03:03:47;;;;;;;44.83;19.77;;;;;;;10.20;100.00;99018.81;5012824;28;20496;-71
2023/10/27 03:06:14;;;;;;;46.80;20.70;;;;;;;10.21;100.00;99015.25;5021383;28;20156;-71
2023/10/27 03:08:42;;;;;;;50.53;21.60;;;;;;;10.20;100.00;99014.41;5021423;28;20152;-71
2023/10/27 03:11:09;;;;;;;42.72;20.63;;;;;;;10.20;100.00;99014.41;5013186;28;20053;-71
2023/10/27 03:13:37;;;;;;;54.50;22.02;;;;;;;10.21;100.00;99010.00;5048026;28;20502;-71
2023/10/27 03:16:05;;;;;;;57.53;22.27;;;;;;;10.22;100.00;99015.19;5011618;28;20053;-71
2023/10/27 03:18:32;;;;;;;46.95;21.67;;;;;;;10.22;100.00;99016.94;5029473;28;20107;-71
2023/10/27 03:21:05;;;;;;;52.58;20.55;;;;;;;10.23;100.00;99008.13;5019337;28;20068;-72
2023/10/27 03:23:32;;;;;;;45.42;20.13;;;;;;;10.21;100.00;99010.84;5022065;28;20049;-72
2023/10/27 03:25:59;;;;;;;42.25;18.75;;;;;;;10.23;100.00;99008.13;5011115;28;20523;-72
2023/10/27 03:28:27;;;;;;;48.35;19.30;;;;;;;10.23;100.00;99008.97;5018194;28;20592;-72
2023/10/27 03:30:54;;;;;;;72.30;21.85;;;;;;;10.26;100.00;99007.94;5020573;28;20046;-72
2023/10/27 03:33:21;;;;;;;51.03;21.90;;;;;;;10.25;100.00;99007.09;5011967;28;20053;-71
2023/10/27 03:35:50;;;;;;;45.25;19.05;;;;;;;10.25;100.00;99008.88;5011078;28;20073;-71
2023/10/27 03:38:17;;;;;;;45.00;19.85;;;;;;;10.25;100.00;99012.34;5020136;28;20038;-71
2023/10/27 03:40:45;;;;;;;56.42;21.75;;;;;;;10.24;100.00;99013.28;5017215;28;20042;-70
2023/10/27 03:43:14;;;;;;;48.38;20.15;;;;;;;10.24;100.00;99002.75;5024177;28;20049;-70
2023/10/27 03:45:42;;;;;;;45.03;20.60;;;;;;;10.23;100.00;99005.50;5025157;28;20049;-70
2023/10/27 03:48:09;;;;;;;46.10;20.90;;;;;;;10.20;100.00;99003.88;5020727;28;20038;-71
2023/10/27 03:50:36;;;;;;;43.85;19.33;;;;;;;10.19;100.00;98996.06;5008649;28;20133;-72
2023/10/27 03:53:04;;;;;;;40.05;19.08;;;;;;;10.20;100.00;98997.75;5019373;28;20058;-72
2023/10/27 03:55:31;;;;;;;49.20;21.13;;;;;;;10.18;100.00;98997.00;5005503;28;20046;-72
2023/10/27 03:58:16;;;;;;;44.13;20.05;;;;;;;10.17;100.00;98998.78;5007891;28;20095;-71
2023/10/27 04:00:43;;;;;;;;;;;;;;;10.15;100.00;98995.41;5010755;28;20049;-70
2023/10/27 04:03:12;;;;;;;46.28;19.48;;;;;;;10.13;100.00;98994.63;5010378;28;19960;-71
2023/10/27 04:05:39;;;;;;;38.90;18.40;;;;;;;10.14;100.00;98996.31;5015932;28;20502;-70
2023/10/27 04:08:06;;;;;;;45.67;19.70;;;;;;;10.13;100.00;98994.63;5022641;28;20486;-70
2023/10/27 04:10:35;;;;;;;46.25;19.35;;;;;;;10.13;100.00;98996.44;5041659;28;20129;-70
2023/10/27 04:13:04;;;;;;;41.35;18.95;;;;;;;10.13;100.00;98996.44;5040934;28;20047;-70
2023/10/27 04:15:31;;;;;;;48.92;18.48;;;;;;;10.12;100.00;98992.97;5006589;28;20441;-71
2023/10/27 04:18:00;;;;;;;46.95;18.42;;;;;;;10.12;100.00;98994.72;5006876;28;21415;-72
2023/10/27 04:20:27;;;;;;;53.40;18.27;;;;;;;10.12;100.00;98998.22;5017344;28;20033;-70
2023/10/27 04:22:54;;;;;;;47.78;18.08;;;;;;;10.11;100.00;98991.25;5019862;28;20064;-70
2023/10/27 04:25:23;;;;;;;47.63;17.00;;;;;;;10.10;100.00;98997.47;5013277;28;20057;-70
2023/10/27 04:27:50;;;;;;;44.55;17.75;;;;;;;10.12;100.00;98994.72;5027172;28;20127;-70
2023/10/27 04:30:17;;;;;;;42.63;17.92;;;;;;;10.12;100.00;98997.34;5013878;28;20050;-70
2023/10/27 04:32:45;;;;;;;42.75;17.33;;;;;;;10.11;100.00;98986.00;5041592;28;20459;-71
2023/10/27 04:35:13;;;;;;;49.85;17.85;;;;;;;10.10;100.00;98994.81;5024269;28;20049;-71
2023/10/27 04:37:40;;;;;;;46.65;17.02;;;;;;;10.09;100.00;98987.88;5022143;28;20041;-70
2023/10/27 04:40:08;;;;;;;38.80;16.20;;;;;;;10.10;100.00;98986.94;5024333;28;20073;-70
2023/10/27 04:42:39;;;;;;;50.03;17.42;;;;;;;10.10;100.00;98993.03;5023064;28;20082;-70
2023/10/27 04:45:07;;;;;;;38.17;16.33;;;;;;;10.10;100.00;98989.56;5022362;28;20321;-70
2023/10/27 04:47:34;;;;;;;45.22;17.50;;;;;;;10.10;100.00;98995.66;5024154;28;20116;-70
2023/10/27 04:50:01;;;;;;;40.60;16.30;;;;;;;10.09;100.00;98987.88;5044077;28;20099;-70
2023/10/27 04:52:28;;;;;;;43.97;16.75;;;;;;;10.07;100.00;98995.81;5025682;28;20585;-70
2023/10/27 04:54:59;;;;;;;31.98;15.40;;;;;;;10.08;100.00;98991.44;5024093;28;20120;-69
2023/10/27 04:57:26;;;;;;;43.25;16.65;;;;;;;10.06;100.00;98977.50;5022328;28;20060;-70
2023/10/27 04:59:56;;;;;;;45.92;17.42;;;;;;;10.08;100.00;98991.44;5025243;28;20516;-70
2023/10/27 05:02:23;;;;;;;50.75;17.40;;;;;;;10.06;100.00;98988.03;5025533;28;20045;-70
2023/10/27 05:04:50;;;;;;;46.47;16.25;;;;;;;10.05;100.00;98989.81;5021140;28;20126;-70
2023/10/27 05:07:17;;;;;;;45.13;16.73;;;;;;;10.04;100.00;98984.63;5020388;28;20026;-70
2023/10/27 05:09:44;;;;;;;38.20;15.35;;;;;;;10.05;100.00;98986.31;5025365;28;20068;-69
2023/10/27 05:12:12;;;;;;;33.63;13.85;;;;;;;10.05;100.00;98983.69;5024658;28;20181;-69
2023/10/27 05:14:41;;;;;;;48.47;16.48;;;;;;;10.04;100.00;98982.00;5025997;28;20047;-70
2023/10/27 05:17:09;;;;;;;46.03;17.63;;;;;;;10.03;100.00;98980.28;5028640;28;20067;-68
2023/10/27 05:19:36;;;;;;;39.95;16.38;;;;;;;10.01;100.00;98980.41;5028120;28;20404;-70
2023/10/27 05:22:06;;;;;;;40.45;16.40;;;;;;;9.99;100.00;98984.91;5036243;28;20160;-70
2023/10/27 05:24:34;;;;;;;37.08;15.45;;;;;;;9.98;100.00;98985.81;5024434;28;20046;-70
2023/10/27 05:27:01;;;;;;;42.90;17.70;;;;;;;9.98;100.00;98982.38;5025431;28;20655;-71
2023/10/27 05:29:30;;;;;;;45.05;17.50;;;;;;;9.94;100.00;98979.91;5045563;28;20061;-69
2023/10/27 05:31:57;;;;;;;38.17;17.33;;;;;;;9.92;100.00;98968.59;5039995;28;20057;-71
2023/10/27 05:34:24;;;;;;;38.35;16.95;;;;;;;9.92;100.00;98979.13;5028080;28;20111;-72
2023/10/27 05:36:52;;;;;;;44.65;17.75;;;;;;;9.88;100.00;98971.50;5022836;28;20037;-71
2023/10/27 05:39:20;;;;;;;36.45;16.70;;;;;;;9.89;100.00;98981.97;5025667;28;20125;-72
2023/10/27 05:41:47;;;;;;;41.05;17.05;;;;;;;9.88;100.00;98984.66;5025027;28;20038;-73
2023/10/27 05:44:14;;;;;;;41.25;18.08;;;;;;;9.87;100.00;98981.19;5020477;28;20448;-73
2023/10/27 05:46:41;;;;;;;42.28;17.38;;;;;;;9.87;100.00;98978.56;5039044;28;20045;-69
2023/10/27 05:49:09;;;;;;;47.15;19.27;;;;;;;9.85;100.00;98975.16;5019595;28;20087;-72
2023/10/27 05:51:36;;;;;;;43.47;17.55;;;;;;;9.85;100.00;98972.53;5036201;28;20152;-73
2023/10/27 05:54:06;;;;;;;37.35;16.42;;;;;;;9.85;100.00;98980.41;5024373;28;20043;-72
2023/10/27 05:56:36;;;;;;;43.67;18.30;;;;;;;9.83;100.00;98979.66;5023381;28;20045;-71
2023/10/27 05:59:05;;;;;;;39.88;17.52;;;;;;;9.83;100.00;98970.94;5022612;28;20033;-70
2023/10/27 06:01:33;;;;;;;41.65;17.20;;;;;;;9.81;100.00;98980.69;5022383;28;20073;-72
2023/10/27 06:04:00;;;;;;;43.17;17.35;;;;;;;9.81;100.00;98978.06;5024706;28;20107;-72
2023/10/27 06:06:27;;;;;;;44.78;18.25;;;;;;;9.79;100.00;98971.09;5021954;28;20116;-72
2023/10/27 06:08:55;;;;;;;42.83;18.00;;;;;;;9.79;100.00;98976.34;5028191;28;20116;-72
2023/10/27 06:11:22;;;;;;;53.03;19.75;;;;;;;9.78;100.00;98969.41;5033670;28;20133;-71
2023/10/27 06:13:49;;;;;;;38.42;18.10;;;;;;;9.78;100.00;98972.03;5024296;28;20481;-71
2023/10/27 06:16:16;;;;;;;42.83;16.85;;;;;;;9.77;100.00;98980.84;5025451;28;20045;-71
2023/10/27 06:18:43;;;;;;;53.92;19.63;;;;;;;9.77;100.00;98983.47;5026303;28;20045;-71
2023/10/27 06:21:10;;;;;;;51.75;19.23;;;;;;;9.78;100.00;98981.72;5023025;28;20052;-71
2023/10/27 06:23:37;;;;;;;38.35;17.50;;;;;;;9.79;100.00;98984.25;5027563;28;20047;-71
2023/10/27 06:26:06;;;;;;;40.42;16.90;;;;;;;9.80;100.00;98982.50;5027887;28;20046;-71
2023/10/27 06:28:34;;;;;;;40.28;17.73;;;;;;;9.78;100.00;98979.09;5026287;28;20041;-72
2023/10/27 06:31:05;;;;;;;38.20;17.55;;;;;;;9.77;100.00;98975.59;5025344;28;20072;-73
2023/10/27 06:33:39;;;;;;;42.75;18.63;;;;;;;9.78;100.00;98974.66;5021135;28;20563;-71
2023/10/27 06:36:07;;;;;;;34.80;17.45;;;;;;;9.77;100.00;98980.03;5024540;28;20519;-72
2023/10/27 06:38:34;;;;;;;37.97;18.30;;;;;;;9.77;100.00;98977.38;5046682;28;20049;-72
2023/10/27 06:41:01;;;;;;;47.72;18.55;;;;;;;9.76;100.00;98976.56;5026418;28;20055;-72
2023/10/27 06:43:28;;;;;;;44.75;18.42;;;;;;;9.77;100.00;98972.97;5027062;28;20056;-73
2023/10/27 06:45:58;;;;;;;35.30;18.15;;;;;;;9.76;100.00;98968.66;5032732;28;20492;-72
2023/10/27 06:48:25;;;;;;;42.58;18.60;;;;;;;9.78;100.00;98981.72;5023495;28;20065;-72
2023/10/27 06:50:55;;;;;;;52.55;19.85;;;;;;;9.78;100.00;98979.09;5024005;28;20041;-72
2023/10/27 06:53:22;;;;;;;38.92;18.23;;;;;;;9.79;100.00;98972.91;5032997;28;20103;-73
2023/10/27 06:55:49;;;;;;;39.47;18.10;;;;;;;9.79;100.00;98975.53;5024549;28;20037;-71
2023/10/27 06:58:16;;;;;;;34.72;17.77;;;;;;;9.79;100.00;98979.00;5026685;28;20095;-73
2023/10/27 07:00:43;;;;;;;38.65;18.45;;;;;;;9.77;100.00;98980.84;5022689;28;20694;-72
2023/10/27 07:03:13;;;;;;;49.17;20.20;;;;;;;9.78;100.00;98981.72;5025286;28;20041;-73
2023/10/27 07:05:56;;;;;;;43.75;18.67;;;;;;;9.80;100.00;98985.13;5033634;28;20574;-72
2023/10/27 07:08:24;;;;;;;47.75;19.23;;;;;;;9.81;100.00;98994.72;5023537;28;20151;-73
2023/10/27 07:10:57;;;;;;;37.95;17.55;;;;;;;9.83;100.00;98990.19;5043007;28;20109;-73
2023/10/27 07:13:26;;;;;;;33.27;16.57;;;;;;;9.83;100.00;98982.28;5024963;28;20124;-73
2023/10/27 07:15:56;;;;;;;36.92;16.45;;;;;;;9.83;100.00;98989.34;5022478;28;20802;-73
2023/10/27 07:18:23;;;;;;;28.65;15.90;;;;;;;9.83;100.00;98994.63;5025842;28;20285;-72
2023/10/27 07:20:53;;;;;;;26.67;15.55;;;;;;;9.83;100.00;98991.97;5022436;28;20046;-73
2023/10/27 07:23:20;;;;;;;35.60;16.55;;;;;;;9.82;100.00;98991.13;5020487;28;20481;-73
2023/10/27 07:25:49;;;;;;;39.80;17.02;;;;;;;9.84;100.00;98997.16;5023828;28;20076;-72
2023/10/27 07:28:16;;;;;;;29.50;16.27;;;;;;;9.85;100.00;99000.66;5025472;28;20045;-72
2023/10/27 07:30:43;;;;;;;38.33;16.67;;;;;;;9.88;100.00;99003.09;5025967;28;20053;-72
2023/10/27 07:33:11;;;;;;;33.08;16.90;;;;;;;9.88;100.00;99001.31;5024495;28;20421;-72
2023/10/27 07:35:38;;;;;;;40.05;17.60;;;;;;;9.89;100.00;99002.16;5038218;28;20052;-72
2023/10/27 07:38:05;;;;;;;32.15;15.82;;;;;;;9.88;100.00;99003.94;5045349;28;20132;-72
2023/10/27 07:40:34;;;;;;;39.85;17.10;;;;;;;9.90;100.00;99003.84;5040390;28;20037;-72
2023/10/27 07:43:02;;;;;;;34.03;16.98;;;;;;;9.90;100.00;99007.34;5023543;28;20682;-73
2023/10/27 07:45:29;;;;;;;49.55;18.02;;;;;;;9.90;100.00;99004.72;5035690;28;20532;-72
2023/10/27 07:47:58;;;;;;;27.10;15.02;;;;;;;9.92;100.00;99004.63;5043073;28;20125;-72
2023/10/27 07:50:25;;;;;;;29.70;16.02;;;;;;;9.91;100.00;99003.78;5020035;28;20045;-73
2023/10/27 07:52:52;;;;;;;29.52;15.60;;;;;;;9.92;100.00;99005.44;5007967;28;20124;-73
2023/10/27 07:55:19;;;;;;;32.38;16.73;;;;;;;9.92;100.00;99002.81;5024406;28;20049;-73
2023/10/27 07:57:47;;;;;;;30.08;15.65;;;;;;;9.94;100.00;99014.13;5029790;28;20425;-73
2023/10/27 08:00:15;;;;;;;26.77;14.18;;;;;;;9.99;100.00;99013.84;5016444;28;20056;-72
2023/10/27 08:02:42;;;;;;;28.60;15.10;;;;;;;10.02;100.00;99007.59;5025918;28;20046;-72
2023/10/27 08:05:09;;;;;;;33.17;16.70;;;;;;;10.01;100.00;99003.25;5031518;28;20262;-72
2023/10/27 08:07:37;;;;;;;36.78;16.05;;;;;;;10.04;100.00;99008.31;5048387;28;20049;-73
2023/10/27 08:10:07;;;;;;;32.95;15.35;;;;;;;10.06;100.00;99006.47;5048800;28;20060;-73
2023/10/27 08:12:35;;;;;;;31.45;16.50;;;;;;;10.08;100.00;99010.69;5045622;28;20049;-72
2023/10/27 08:15:07;;;;;;;35.33;16.13;;;;;;;10.10;100.00;99008.81;5021944;28;20050;-74
2023/10/27 08:17:35;;;;;;;35.67;15.98;;;;;;;10.14;100.00;99008.66;5023753;28;20049;-74
2023/10/27 08:20:04;;;;;;;29.63;15.93;;;;;;;10.14;100.00;99011.28;5027572;28;20498;-74
2023/10/27 08:22:32;;;;;;;37.40;16.80;;;;;;;10.14;100.00;99006.84;5028482;28;20055;-73
2023/10/27 08:25:00;;;;;;;58.80;19.77;;;;;;;10.16;100.00;99009.41;5032377;28;20046;-73
2023/10/27 08:27:28;;;;;;;40.72;18.35;;;;;;;10.17;100.00;99008.50;5045200;28;20128;-73
2023/10/27 08:29:57;;;;;;;33.38;17.00;;;;;;;10.17;100.00;99006.69;5023391;28;20056;-74
2023/10/27 08:32:24;;;;;;;36.28;17.10;;;;;;;10.18;100.00;99007.53;5012302;28;20128;-73
2023/10/27 08:34:51;;;;;;;39.28;17.63;;;;;;;10.20;100.00;99014.41;5025187;28;20052;-73
2023/10/27 08:37:18;;;;;;;32.88;16.90;;;;;;;10.22;100.00;99007.28;5028772;28;20045;-74
2023/10/27 08:39:45;;;;;;;23.90;14.63;;;;;;;10.23;100.00;99011.59;5025873;28;20087;-72
2023/10/27 08:42:13;;;;;;;32.08;15.73;;;;;;;10.23;100.00;99010.75;5011560;28;20052;-72
2023/10/27 08:44:44;;;;;;;21.67;13.55;;;;;;;10.26;100.00;99018.47;5034027;28;20049;-72
2023/10/27 08:47:12;;;;;;;23.65;13.75;;;;;;;10.25;100.00;99022.88;5026104;28;20056;-72
2023/10/27 08:49:40;;;;;;;26.70;14.85;;;;;;;10.30;100.00;99024.41;5019690;28;20038;-72
2023/10/27 08:52:08;;;;;;;24.55;13.93;;;;;;;10.34;100.00;99025.91;5024596;28;20064;-73
2023/10/27 08:54:40;;;;;;;24.15;14.10;;;;;;;10.36;100.00;99029.31;5025884;28;20045;-73
2023/10/27 08:57:08;;;;;;;25.67;14.82;;;;;;;10.38;100.00;99030.94;5020530;28;20034;-73
2023/10/27 08:59:35;;;;;;;25.40;14.95;;;;;;;10.39;100.00;99024.75;5022995;28;20103;-73
2023/10/27 09:02:05;;;;;;;27.08;14.85;;;;;;;10.42;100.00;99031.66;5027472;28;20046;-73
2023/10/27 09:04:33;;;;;;;24.13;13.98;;;;;;;10.44;100.00;99031.53;5017275;28;20449;-73
2023/10/27 09:07:01;;;;;;;25.40;14.18;;;;;;;10.46;100.00;99030.50;5044166;28;20045;-73
2023/10/27 09:09:28;;;;;;;25.85;15.27;;;;;;;10.48;100.00;99026.00;5033900;28;20103;-73
2023/10/27 09:11:56;;;;;;;27.88;14.57;;;;;;;10.50;100.00;99026.78;5027728;28;20045;-73
2023/10/27 09:14:33;;;;;;;23.95;14.15;;;;;;;10.54;100.00;99025.63;5019798;28;20088;-75
2023/10/27 09:17:08;;;;;;;21.33;13.65;;;;;;;10.62;100.00;99037.53;5025809;28;20045;-73
2023/10/27 09:19:36;;;;;;;17.67;12.88;;;;;;;10.66;100.00;99039.88;5026414;28;20037;-73
2023/10/27 09:22:15;;;;;;;17.33;11.73;;;;;;;10.68;100.00;99045.06;5028044;28;20319;-73
2023/10/27 09:24:43;;;;;;;19.25;11.73;;;;;;;10.69;100.00;99050.22;5028717;28;20149;-73
2023/10/27 09:27:13;;;;;;;17.50;11.15;;;;;;;10.68;100.00;99045.88;5048454;28;20049;-73
2023/10/27 09:29:42;;;;;;;15.57;11.32;;;;;;;10.68;100.00;99040.63;5047667;28;20041;-73
2023/10/27 09:32:27;;;;;;;19.83;11.45;;;;;;;10.68;100.00;99031.88;5029256;28;20492;-73
2023/10/27 09:35:09;;;;;;;;;;;;;;;10.65;100.00;99040.81;5030089;28;20048;-74
2023/10/27 09:37:41;;;;;;;15.07;10.75;;;;;;;10.67;100.00;99046.84;5006882;28;19925;-74
2023/10/27 09:40:09;;;;;;;17.67;11.68;;;;;;;10.70;100.00;99051.09;5008224;28;20125;-74
2023/10/27 09:42:37;;;;;;;14.95;11.23;;;;;;;10.74;100.00;99049.13;5006742;28;20042;-73
2023/10/27 09:45:13;;;;;;;21.25;11.30;;;;;;;10.76;100.00;99052.50;5026051;28;20044;-74
2023/10/27 09:47:40;;;;;;;18.00;11.07;;;;;;;10.75;100.00;99058.72;5001799;28;20048;-74
2023/10/27 09:50:13;;;;;;;15.77;11.40;;;;;;;10.79;100.00;99068.13;5006655;28;20053;-73
2023/10/27 09:52:44;;;;;;;17.52;11.80;;;;;;;10.79;100.00;99063.72;5020132;28;20057;-74
2023/10/27 09:55:13;;;;;;;17.10;12.05;;;;;;;10.82;100.00;99068.81;5026848;28;20449;-75
2023/10/27 09:57:46;;;;;;;18.73;11.30;;;;;;;10.84;100.00;99060.81;5046787;28;20048;-73
2023/10/27 10:00:22;;;;;;;19.15;11.65;;;;;;;10.90;100.00;99067.50;5037792;28;20042;-73
2023/10/27 10:02:50;;;;;;;12.80;9.07;;;;;;;10.95;100.00;99068.06;5015307;28;20037;-73
2023/10/27 10:05:18;;;;;;;11.50;8.90;;;;;;;10.99;100.00;99066.94;5042771;28;20543;-73
2023/10/27 10:08:06;;;;;;;12.13;9.48;;;;;;;11.04;100.00;99075.41;5033289;28;20049;-73
2023/10/27 10:10:33;;;;;;;10.90;8.32;;;;;;;11.09;100.00;99068.09;5020067;28;20068;-74
2023/10/27 10:13:17;;;;;;;11.30;8.25;;;;;;;11.12;100.00;99069.69;5029227;28;20510;-74
2023/10/27 10:15:47;;;;;;;10.15;7.97;;;;;;;11.14;100.00;99076.53;5013822;28;20068;-75
2023/10/27 10:18:20;;;;;;;9.18;7.70;;;;;;;11.12;100.00;99077.59;5026654;28;20505;-75
2023/10/27 10:20:56;;;;;;;11.43;8.20;;;;;;;11.11;100.00;99084.66;5024947;28;20416;-75
2023/10/27 10:23:37;;;;;;;9.50;6.90;;;;;;;11.10;100.00;99082.09;5026392;28;20041;-74
2023/10/27 10:26:05;;;;;;;7.03;6.25;;;;;;;11.07;100.00;99079.69;5025222;28;20399;-74
2023/10/27 10:28:34;;;;;;;8.15;6.70;;;;;;;11.02;100.00;99085.22;5034755;28;20578;-74
2023/10/27 10:31:07;;;;;;;9.63;7.45;;;;;;;11.01;100.00;99075.63;5027619;28;20435;-74
2023/10/27 10:33:36;;;;;;;9.98;6.97;;;;;;;11.04;100.00;99064.88;5018687;28;20053;-74
2023/10/27 10:36:14;;;;;;;8.27;6.65;;;;;;;11.05;100.00;99068.38;5023495;28;20076;-73
2023/10/27 10:38:43;;;;;;;8.13;6.60;;;;;;;11.02;100.00;99064.13;5019597;28;20509;-73
2023/10/27 10:41:11;;;;;;;7.85;6.45;;;;;;;11.01;100.00;99063.28;5026782;28;20094;-73
2023/10/27 10:43:38;;;;;;;8.60;6.70;;;;;;;11.00;100.00;99061.56;5046462;28;20055;-73
2023/10/27 10:46:10;;;;;;;9.40;6.88;;;;;;;10.99;100.00;99056.41;5031616;28;20456;-73
2023/10/27 10:48:44;;;;;;;10.10;7.53;;;;;;;10.99;100.00;99061.66;5018427;28;20052;-73
2023/10/27 10:51:15;;;;;;;9.82;6.90;;;;;;;11.03;100.00;99063.19;5029614;28;20037;-73
2023/10/27 10:53:53;;;;;;;10.68;7.80;;;;;;;11.09;100.00;99069.88;5011699;28;20046;-73
2023/10/27 10:56:24;;;;;;;11.27;8.20;;;;;;;11.13;100.00;99084.56;5024513;28;20044;-73
2023/10/27 10:58:51;;;;;;;9.40;8.35;;;;;;;11.16;100.00;99081.75;5017060;28;20123;-73
2023/10/27 11:01:21;;;;;;;10.60;7.63;;;;;;;11.17;100.00;99086.91;5027452;28;20045;-73
2023/10/27 11:03:54;;;;;;;12.40;8.15;;;;;;;11.18;100.00;99091.25;5025318;28;20054;-74
2023/10/27 11:06:27;;;;;;;13.40;8.15;;;;;;;11.19;100.00;99095.59;5016780;28;20254;-74
2023/10/27 11:08:55;;;;;;;9.40;7.10;;;;;;;11.20;100.00;99096.44;5024673;28;20045;-74
2023/10/27 11:11:22;;;;;;;24.23;8.70;;;;;;;11.20;100.00;99093.78;5039153;28;20048;-73
2023/10/27 11:14:00;;;;;;;13.38;7.82;;;;;;;11.25;100.00;99102.28;5019773;28;20445;-73
2023/10/27 11:16:28;;;;;;;8.32;7.10;;;;;;;11.29;100.00;99095.88;5006427;28;20069;-74
2023/10/27 11:19:02;;;;;;;14.15;8.50;;;;;;;11.31;100.00;99095.78;5020241;28;20203;-74
2023/10/27 11:21:33;;;;;;;17.65;11.80;;;;;;;11.29;100.00;99105.59;5018837;28;20080;-74